»·PEaware :: SWA2330 KSAN-KPHX

SWA2330 :: KSAN-KPHX

FLIGHT INFORMATION

Flight Status: Arrived
Operator:
Southwest Airlines
More flights by this operator :: More flights under this callsign
Pilot: Luis Carlos C. (28559)
Aircraft: BOEING 737-800
(B738)
More flights by this aircraft type
Origin: KSAN San Diego Intl-Lindbergh
United States
Destination: KPHX Phoenix Sky Harbor Intl
United States
More flights between these airports :: More routes between these airports
Route: +ZZOOO2 IPL J18 BZA HOGGZ HYDRR1
File this flight plan on PilotEdge
Remarks:
Altitude:
(Current/Filed)
27,000ft
Speed:
(Current/Filed)
450kts
Departed: 26-Apr-20 03:48 PM
Arrived: 26-Apr-20 04:46 PM
Distance/Time
Traveled:
263nm/0:58
Distance/Time
To Go:
Arrived

Flight Plot

Page will automatically refresh every two minutes.

Flight plan parsing failed; only flown route is shown


Map Options




Map Legend


Flown Route
Filed Route
Departure Airport
Arrival Airport
Navaid (VOR, NDB)
Fix

Horizontal Profiles

Position Reports

Time Latitude Longitude Heading Altitude Ground
Speed
26-Apr-20 15:14 32.732467 -117.201608 110 23ft 0kts
26-Apr-20 15:15 32.732467 -117.201608 110 23ft 0kts
26-Apr-20 15:16 32.732467 -117.201608 110 23ft 0kts
26-Apr-20 15:17 32.732467 -117.201608 110 23ft 0kts
26-Apr-20 15:18 32.732467 -117.201608 110 23ft 0kts
26-Apr-20 15:19 32.732467 -117.201608 110 23ft 0kts
26-Apr-20 15:20 32.732467 -117.201608 110 23ft 0kts
26-Apr-20 15:21 32.732467 -117.201608 110 23ft 0kts
26-Apr-20 15:22 32.732467 -117.201608 110 23ft 0kts
26-Apr-20 15:23 32.732467 -117.201608 110 23ft 0kts
26-Apr-20 15:24 32.732467 -117.201608 110 23ft 0kts
26-Apr-20 15:25 32.732467 -117.201608 110 23ft 0kts
26-Apr-20 15:26 32.732467 -117.201608 110 23ft 0kts
26-Apr-20 15:27 32.732518 -117.201766 112 23ft 2kts
26-Apr-20 15:28 32.732881 -117.202506 131 23ft 0kts
26-Apr-20 15:29 32.732881 -117.202506 131 23ft 0kts
26-Apr-20 15:30 32.732881 -117.202506 131 23ft 0kts
26-Apr-20 15:31 32.732881 -117.202506 131 23ft 0kts
26-Apr-20 15:33 32.732881 -117.202506 131 23ft 0kts
26-Apr-20 15:34 32.732881 -117.202506 131 23ft 0kts
26-Apr-20 15:35 32.732880 -117.202504 131 23ft 0kts
26-Apr-20 15:36 32.732877 -117.202501 131 23ft 0kts
26-Apr-20 15:37 32.732872 -117.202494 131 23ft 0kts
26-Apr-20 15:38 32.732867 -117.202487 131 23ft 0kts
26-Apr-20 15:39 32.732848 -117.202389 82 23ft 2kts
26-Apr-20 15:40 32.734701 -117.202536 18 23ft 14kts
26-Apr-20 15:41 32.734132 -117.196339 104 23ft 22kts
26-Apr-20 15:42 32.732509 -117.189546 105 23ft 24kts
26-Apr-20 15:43 32.730837 -117.182722 106 23ft 19kts
26-Apr-20 15:44 32.729646 -117.177761 106 23ft 0kts
26-Apr-20 15:45 32.729646 -117.177761 106 23ft 0kts
26-Apr-20 15:46 32.729646 -117.177761 106 23ft 0kts
26-Apr-20 15:47 32.730335 -117.175754 285 23ft 10kts
26-Apr-20 15:47 32.734960 -117.195538 286 92ft 160kts
26-Apr-20 15:49 32.751839 -117.265097 286 2457ft 243kts
26-Apr-20 15:50 32.732033 -117.339470 200 5290ft 280kts
26-Apr-20 15:50 32.682842 -117.306606 111 8086ft 282kts
26-Apr-20 15:51 32.633398 -117.242300 120 10776ft 298kts
26-Apr-20 15:53 32.619815 -117.115527 96 13028ft 352kts
26-Apr-20 15:53 32.611100 -117.017593 96 14875ft 365kts
26-Apr-20 15:54 32.606428 -116.896639 82 16291ft 372kts
26-Apr-20 15:55 32.629317 -116.777398 78 18566ft 385kts
26-Apr-20 15:56 32.642731 -116.649609 84 20669ft 398kts
26-Apr-20 15:57 32.654808 -116.519250 83 23224ft 394kts
26-Apr-20 15:58 32.667276 -116.390387 82 25674ft 391kts
26-Apr-20 15:59 32.679885 -116.261821 82 26947ft 396kts
26-Apr-20 16:00 32.692602 -116.124816 83 26939ft 438kts
26-Apr-20 16:01 32.702261 -116.020642 82 26912ft 459kts
26-Apr-20 16:02 32.716291 -115.869017 82 26866ft 460kts
26-Apr-20 16:03 32.730235 -115.718367 83 26843ft 460kts
26-Apr-20 16:04 32.743690 -115.566950 83 26824ft 460kts
26-Apr-20 16:05 32.751812 -115.415174 88 26812ft 461kts
26-Apr-20 16:06 32.755013 -115.263049 87 26825ft 460kts
26-Apr-20 16:07 32.758193 -115.111168 87 26827ft 461kts
26-Apr-20 16:08 32.761495 -114.958819 87 26831ft 460kts
26-Apr-20 16:09 32.764556 -114.806769 88 26837ft 460kts
26-Apr-20 16:10 32.767211 -114.654529 88 26843ft 460kts
26-Apr-20 16:11 32.769473 -114.502671 88 26847ft 459kts
26-Apr-20 16:12 32.771838 -114.351160 88 26849ft 459kts
26-Apr-20 16:13 32.773522 -114.199687 88 26477ft 447kts
26-Apr-20 16:14 32.775963 -114.053688 84 25070ft 449kts
26-Apr-20 16:15 32.793071 -113.905051 81 24854ft 453kts
26-Apr-20 16:16 32.808666 -113.761292 81 24851ft 418kts
26-Apr-20 16:17 32.852801 -113.638196 48 24857ft 411kts
26-Apr-20 16:18 32.928824 -113.537568 47 24799ft 406kts
26-Apr-20 16:19 33.002647 -113.437839 47 22271ft 395kts
26-Apr-20 16:20 33.073688 -113.341839 47 20488ft 369kts
26-Apr-20 16:21 33.140577 -113.251605 48 19007ft 357kts
26-Apr-20 16:22 33.205388 -113.163515 48 17481ft 349kts
26-Apr-20 16:23 33.265252 -113.079301 60 16587ft 326kts
26-Apr-20 16:24 33.277356 -112.977146 89 15697ft 310kts
26-Apr-20 16:25 33.279228 -112.875566 87 15021ft 302kts
26-Apr-20 16:26 33.284145 -112.773125 82 14805ft 318kts
26-Apr-20 16:27 33.295150 -112.668092 83 13852ft 317kts
26-Apr-20 16:28 33.304879 -112.563933 83 12905ft 310kts
26-Apr-20 16:29 33.314118 -112.462412 83 11985ft 307kts
26-Apr-20 16:30 33.323299 -112.361290 83 11082ft 303kts
26-Apr-20 16:31 33.329919 -112.290596 83 10540ft 303kts
26-Apr-20 16:32 33.338712 -112.192655 83 9772ft 288kts
26-Apr-20 16:33 33.346750 -112.102588 84 9336ft 256kts
26-Apr-20 16:34 33.346886 -112.019052 91 8355ft 249kts
26-Apr-20 16:35 33.345641 -111.937023 91 7330ft 244kts
26-Apr-20 16:36 33.346653 -111.856977 89 6561ft 238kts
26-Apr-20 16:37 33.348260 -111.778200 89 5229ft 235kts
26-Apr-20 16:38 33.359499 -111.704034 40 4066ft 233kts
26-Apr-20 16:39 33.422445 -111.698219 336 4038ft 236kts
26-Apr-20 16:40 33.444586 -111.761398 254 4090ft 219kts
26-Apr-20 16:41 33.427887 -111.828080 267 3711ft 206kts
26-Apr-20 16:42 33.430988 -111.892934 265 2564ft 173kts
26-Apr-20 16:43 33.429070 -111.943044 270 2369ft 157kts
26-Apr-20 16:44 33.428794 -111.996041 271 1304ft 154kts
26-Apr-20 16:45 33.429537 -112.021725 354 1143ft 13kts
26-Apr-20 16:46 33.429988 -112.016722 78 1143ft 17kts
26-Apr-20 16:47 33.433461 -112.015428 77 1143ft 6kts
26-Apr-20 16:48 33.433489 -112.014733 91 1143ft 0kts
26-Apr-20 16:49 33.433489 -112.014733 91 1143ft 0kts
26-Apr-20 16:50 33.433489 -112.014733 91 1143ft 0kts
26-Apr-20 16:51 33.433489 -112.014733 91 1143ft 0kts
26-Apr-20 16:52 33.433489 -112.014733 91 1143ft 0kts

Navigation Log

Ident Type
Flight plan parsing failed, navigation log unavailable